Time;durP1;ratioP1;P1;durP2;ratioP2;P2;SDS_P1;SDS_P2;PMS_P1;PMS_P2;Temp;Humidity;BMP_temperature;BMP_pressure;BME280_temperature;BME280_humidity;BME280_pressure;Samples;Min_cycle;Max_cycle;Signal;HPM_P1;HPM_P2
2022/02/02 00:02:21;;;;;;;41.05;7.85;;;9.30;99.90;;;;;;5008621;28;25065;-69
2022/02/02 00:04:50;;;;;;;43.53;8.57;;;9.30;99.90;;;;;;4990888;28;25374;-69
2022/02/02 00:09:53;;;;;;;41.10;8.47;;;9.20;99.90;;;;;;5067297;28;25144;-70
2022/02/02 00:17:30;;;;;;;37.60;7.75;;;9.20;99.90;;;;;;5068291;28;25093;-70
2022/02/02 00:20:11;;;;;;;45.53;7.68;;;9.20;99.90;;;;;;5051102;28;25090;-70
2022/02/02 00:22:39;;;;;;;47.78;8.18;;;9.20;99.90;;;;;;5066532;28;25159;-69
2022/02/02 00:25:12;;;;;;;43.75;9.27;;;9.10;99.90;;;;;;5065649;28;25069;-69
2022/02/02 00:28:06;;;;;;;44.55;9.27;;;9.10;99.90;;;;;;5065288;28;25161;-69
2022/02/02 00:30:36;;;;;;;50.05;10.43;;;9.10;99.90;;;;;;5048698;28;25056;-70
2022/02/02 00:35:33;;;;;;;43.78;8.93;;;9.10;99.90;;;;;;5086323;28;25060;-70
2022/02/02 00:37:59;;;;;;;47.47;9.73;;;9.10;99.90;;;;;;5065312;28;25124;-71
2022/02/02 00:40:25;;;;;;;52.03;8.30;;;9.10;99.90;;;;;;5065364;28;25151;-69
2022/02/02 00:42:51;;;;;;;61.13;10.65;;;9.00;99.90;;;;;;5066219;28;25078;-71
2022/02/02 00:45:18;;;;;;;44.95;10.77;;;9.00;99.90;;;;;;5047984;28;25052;-71
2022/02/02 00:47:48;;;;;;;49.40;8.75;;;9.00;99.90;;;;;;5067520;28;25050;-70
2022/02/02 00:50:14;;;;;;;43.65;7.35;;;9.00;99.90;;;;;;5037275;28;25066;-68
2022/02/02 00:52:40;;;;;;;48.88;9.07;;;9.00;99.90;;;;;;5057278;28;25099;-70
2022/02/02 00:55:06;;;;;;;45.88;9.05;;;9.00;99.90;;;;;;5065942;28;25093;-69
2022/02/02 00:57:31;;;;;;;40.03;9.25;;;9.00;99.90;;;;;;5066267;28;25106;-68
2022/02/02 00:59:58;;;;;;;60.38;11.50;;;9.00;99.90;;;;;;5066649;28;25057;-68
2022/02/02 01:02:24;;;;;;;47.13;8.73;;;9.00;99.90;;;;;;5066386;28;25052;-70
2022/02/02 01:04:49;;;;;;;54.42;10.20;;;8.90;99.90;;;;;;5065499;28;25121;-70
2022/02/02 01:07:35;;;;;;;61.53;9.32;;;8.90;99.90;;;;;;5036142;28;25164;-68
2022/02/02 01:13:08;;;;;;;50.70;9.63;;;8.90;99.90;;;;;;5005586;28;25103;-68
2022/02/02 01:18:22;;;;;;;48.42;9.90;;;8.90;99.90;;;;;;5054854;28;25103;-68
2022/02/02 01:21:00;;;;;;;56.13;9.13;;;8.80;99.90;;;;;;5047039;28;25133;-69
2022/02/02 01:28:40;;;;;;;42.35;8.40;;;8.80;99.90;;;;;;5050957;28;25060;-70
2022/02/02 01:31:07;;;;;;;38.60;8.27;;;8.80;99.90;;;;;;5058880;28;25343;-68
2022/02/02 01:33:39;;;;;;;52.28;9.18;;;8.80;99.90;;;;;;5062798;28;25126;-69
2022/02/02 01:36:05;;;;;;;50.67;8.47;;;8.80;99.90;;;;;;5045079;28;25058;-70
2022/02/02 01:38:33;;;;;;;52.67;8.77;;;8.80;99.90;;;;;;5045194;28;25161;-69
2022/02/02 01:41:05;;;;;;;44.00;9.15;;;8.80;99.90;;;;;;5045054;28;25131;-70
2022/02/02 01:43:36;;;;;;;49.05;9.65;;;8.80;99.90;;;;;;5044577;28;25058;-70
2022/02/02 01:46:12;;;;;;;45.95;9.52;;;8.80;99.90;;;;;;5045224;28;25132;-70
2022/02/02 01:48:49;;;;;;;47.28;8.63;;;8.80;99.90;;;;;;5026386;28;25086;-69
2022/02/02 01:54:04;;;;;;;43.30;8.63;;;8.70;99.90;;;;;;5052833;28;25084;-69
2022/02/02 01:56:29;;;;;;;50.10;9.13;;;8.70;99.90;;;;;;5064703;28;25072;-69
2022/02/02 01:59:10;;;;;;;55.60;10.35;;;8.70;99.90;;;;;;5046864;28;25129;-71
2022/02/02 02:01:36;;;;;;;43.88;9.93;;;8.60;99.90;;;;;;5057694;28;25075;-70
2022/02/02 02:04:02;;;;;;;40.05;8.35;;;8.60;99.90;;;;;;5064137;28;25123;-69
2022/02/02 02:06:27;;;;;;;45.05;8.82;;;8.60;99.90;;;;;;5064136;28;25081;-72
2022/02/02 02:08:53;;;;;;;51.00;9.45;;;8.60;99.90;;;;;;5065685;28;25079;-69
2022/02/02 02:11:21;;;;;;;53.90;10.90;;;8.60;99.90;;;;;;5065363;28;25079;-70
2022/02/02 02:16:19;;;;;;;50.38;10.30;;;8.70;99.90;;;;;;5065799;28;25103;-69
2022/02/02 02:18:45;;;;;;;49.55;9.40;;;8.60;99.90;;;;;;5064910;28;25085;-69
2022/02/02 02:21:14;;;;;;;59.13;10.63;;;8.60;99.90;;;;;;5065640;28;25132;-69
2022/02/02 02:23:40;;;;;;;52.45;8.80;;;8.60;99.90;;;;;;5064096;28;25063;-69
2022/02/02 02:26:07;;;;;;;50.88;9.68;;;8.60;99.90;;;;;;5064574;28;25144;-70
2022/02/02 02:31:18;;;;;;;48.85;10.50;;;8.60;99.90;;;;;;5064739;28;25187;-69
2022/02/02 02:58:19;;;;;;;57.28;10.52;;;8.70;99.90;;;;;;5065153;28;25152;-68
2022/02/02 03:30:13;;;;;;;40.63;8.27;;;8.80;99.90;;;;;;5066922;28;25074;-69
2022/02/02 03:56:38;;;;;;;52.47;9.65;;;8.80;99.90;;;;;;5068687;28;25071;-69
2022/02/02 04:01:55;;;;;;;56.55;9.75;;;8.80;99.90;;;;;;5069822;28;25106;-69
2022/02/02 04:07:10;;;;;;;48.30;8.63;;;8.80;99.90;;;;;;5067935;28;25078;-69
2022/02/02 04:09:38;;;;;;;59.53;8.95;;;8.90;99.90;;;;;;5068617;28;25077;-67
2022/02/02 05:11:11;;;;;;;55.20;9.00;;;8.70;99.90;;;;;;5090316;28;25109;-70
2022/02/02 05:21:34;;;;;;;49.25;9.25;;;8.70;99.90;;;;;;5078112;28;25098;-69
2022/02/02 05:43:30;;;;;;;56.28;9.45;;;8.70;99.90;;;;;;5057962;28;25136;-68
2022/02/02 05:52:17;;;;;;;55.88;11.25;;;8.70;99.90;;;;;;5058414;28;25076;-70
2022/02/02 05:54:12;;;;;;;35.50;7.72;;;8.60;99.90;;;;;;5043071;28;25079;-69
2022/02/02 05:56:46;;;;;;;51.58;9.27;;;8.70;99.90;;;;;;5065147;28;25132;-71
2022/02/02 05:59:11;;;;;;;50.28;10.93;;;8.60;99.90;;;;;;5066074;28;25120;-69
2022/02/02 06:01:49;;;;;;;46.97;9.88;;;8.60;99.90;;;;;;5065312;28;25065;-68
2022/02/02 06:04:17;;;;;;;47.25;9.40;;;8.60;99.90;;;;;;5064245;28;25110;-68
2022/02/02 06:06:46;;;;;;;47.58;8.38;;;8.60;99.90;;;;;;5038935;28;25100;-70
2022/02/02 06:09:11;;;;;;;50.55;8.02;;;8.60;99.90;;;;;;5041082;28;25067;-69
2022/02/02 06:11:39;;;;;;;53.80;9.38;;;8.70;99.90;;;;;;5057002;28;25144;-70
2022/02/02 06:14:05;;;;;;;42.03;9.23;;;8.60;99.90;;;;;;5063093;28;25102;-70
2022/02/02 06:16:31;;;;;;;54.03;9.18;;;8.60;99.90;;;;;;5062717;28;25075;-69
2022/02/02 06:18:59;;;;;;;50.60;9.80;;;8.60;99.90;;;;;;5042511;28;25115;-69
2022/02/02 06:21:30;;;;;;;44.20;8.68;;;8.60;99.90;;;;;;5057347;28;25079;-69
2022/02/02 06:24:09;;;;;;;52.65;10.10;;;8.60;99.90;;;;;;5061122;28;25093;-69
2022/02/02 06:26:37;;;;;;;42.83;8.93;;;8.60;99.90;;;;;;5065562;28;24739;-69
2022/02/02 06:29:06;;;;;;;48.58;8.57;;;8.60;99.90;;;;;;5064514;28;25048;-69
2022/02/02 06:31:36;;;;;;;48.25;8.90;;;8.60;99.90;;;;;;5059592;28;25107;-69
2022/02/02 06:34:06;;;;;;;59.47;9.38;;;8.60;99.90;;;;;;5045295;28;25071;-70
2022/02/02 06:36:33;;;;;;;49.03;9.90;;;8.60;99.90;;;;;;5068655;28;25138;-69
2022/02/02 06:38:59;;;;;;;47.45;8.75;;;8.50;99.90;;;;;;5070351;28;25057;-69
2022/02/02 06:41:26;;;;;;;34.60;8.23;;;8.50;99.90;;;;;;5068872;28;25081;-68
2022/02/02 06:43:56;;;;;;;42.25;8.20;;;8.50;99.90;;;;;;5070631;28;25125;-68
2022/02/02 06:46:27;;;;;;;54.13;9.27;;;8.50;99.90;;;;;;5038198;28;25093;-69
2022/02/02 06:48:52;;;;;;;52.00;8.38;;;8.50;99.90;;;;;;5054013;28;25148;-68
2022/02/02 06:51:29;;;;;;;46.10;8.38;;;8.50;99.90;;;;;;5072292;28;25136;-69
2022/02/02 06:54:13;;;;;;;53.97;9.07;;;8.50;99.90;;;;;;5074880;28;25080;-69
2022/02/02 06:59:32;;;;;;;43.90;9.10;;;8.40;99.90;;;;;;5053240;28;25095;-70
2022/02/02 07:04:46;;;;;;;54.08;8.57;;;8.40;99.90;;;;;;5069912;28;25262;-70
2022/02/02 07:07:53;;;;;;;53.03;9.52;;;8.40;99.90;;;;;;5052014;28;25074;-69
2022/02/02 07:18:14;;;;;;;45.50;9.50;;;8.40;99.90;;;;;;5071740;28;25063;-70
2022/02/02 07:31:31;;;;;;;54.30;9.68;;;8.50;99.90;;;;;;5073374;28;25112;-69
2022/02/02 07:34:12;;;;;;;40.00;7.68;;;8.50;99.90;;;;;;5038272;28;25052;-71
2022/02/02 07:36:42;;;;;;;37.45;7.18;;;8.50;99.90;;;;;;5035144;28;25076;-67
2022/02/02 07:39:11;;;;;;;40.67;8.48;;;8.50;99.90;;;;;;5052933;28;25135;-70
2022/02/02 07:41:47;;;;;;;42.22;8.10;;;8.50;99.90;;;;;;5053368;28;25076;-69
2022/02/02 07:44:19;;;;;;;42.25;8.02;;;8.60;99.90;;;;;;5055426;28;25079;-69
2022/02/02 07:46:50;;;;;;;50.83;8.13;;;8.60;99.90;;;;;;5054426;28;25151;-66
2022/02/02 07:49:22;;;;;;;47.65;6.85;;;8.60;99.90;;;;;;5038780;28;25178;-69
2022/02/02 07:51:51;;;;;;;36.20;7.28;;;8.60;99.90;;;;;;5053379;28;25096;-70
2022/02/02 07:54:23;;;;;;;40.00;7.88;;;8.60;99.90;;;;;;5052204;28;25075;-67
2022/02/02 07:56:49;;;;;;;40.22;6.55;;;8.60;99.90;;;;;;5051608;28;25057;-69
2022/02/02 07:59:33;;;;;;;37.42;7.25;;;8.60;99.90;;;;;;5051368;28;25066;-70
2022/02/02 08:02:01;;;;;;;40.42;6.97;;;8.60;99.90;;;;;;5032528;28;25100;-68
2022/02/02 08:04:29;;;;;;;35.28;7.03;;;8.70;99.90;;;;;;5050901;28;25097;-68
2022/02/02 08:06:56;;;;;;;35.42;6.30;;;8.70;99.90;;;;;;5050562;28;25055;-69
2022/02/02 08:11:58;;;;;;;35.95;5.93;;;8.70;99.90;;;;;;5051863;28;25129;-69
2022/02/02 08:14:25;;;;;;;21.85;5.47;;;8.70;99.90;;;;;;5051519;28;25051;-68
2022/02/02 08:16:51;;;;;;;34.03;6.63;;;8.80;99.90;;;;;;5049029;28;25102;-69
2022/02/02 08:19:17;;;;;;;31.17;5.40;;;8.80;99.90;;;;;;5071735;28;25158;-70
2022/02/02 08:21:46;;;;;;;24.50;5.15;;;8.80;99.90;;;;;;5070424;28;25143;-70
2022/02/02 08:24:13;;;;;;;34.35;6.68;;;8.80;99.90;;;;;;5070629;28;25053;-70
2022/02/02 08:26:38;;;;;;;29.45;6.57;;;8.70;99.90;;;;;;5075721;28;25060;-67
2022/02/02 08:29:06;;;;;;;27.95;5.25;;;8.70;99.90;;;;;;5060602;28;25067;-68
2022/02/02 08:31:33;;;;;;;22.67;5.82;;;8.80;99.90;;;;;;5077280;28;25055;-69
2022/02/02 08:34:02;;;;;;;38.10;7.00;;;8.80;99.90;;;;;;5076541;28;25100;-68
2022/02/02 08:36:28;;;;;;;33.75;6.13;;;8.80;99.90;;;;;;5072650;28;25093;-68
2022/02/02 08:41:27;;;;;;;21.40;6.20;;;8.80;99.90;;;;;;5071932;28;25076;-69
2022/02/02 08:44:00;;;;;;;23.70;6.00;;;8.80;99.90;;;;;;5069270;28;25056;-68
2022/02/02 08:46:35;;;;;;;31.73;6.63;;;8.80;99.90;;;;;;5069722;28;25075;-66
2022/02/02 08:49:06;;;;;;;34.30;7.15;;;8.90;99.90;;;;;;5069361;28;25102;-67
2022/02/02 08:51:38;;;;;;;29.70;7.22;;;8.80;99.90;;;;;;5069400;28;25091;-69
2022/02/02 08:56:53;;;;;;;27.75;6.43;;;8.90;99.90;;;;;;5069904;28;25069;-66
2022/02/02 09:01:43;;;;;;;26.75;5.63;;;8.90;99.90;;;;;;5069763;28;25088;-69
2022/02/02 09:06:53;;;;;;;22.88;6.18;;;8.90;99.90;;;;;;5069658;28;25089;-67
2022/02/02 09:09:35;;;;;;;31.58;7.30;;;8.90;99.90;;;;;;5051859;28;25113;-68
2022/02/02 09:25:54;;;;;;;23.77;5.45;;;9.10;99.90;;;;;;5068905;28;25071;-65
2022/02/02 09:33:53;;;;;;;32.60;6.15;;;9.00;99.90;;;;;;5069663;28;25048;-68
2022/02/02 09:36:23;;;;;;;26.17;5.57;;;9.10;99.90;;;;;;5070393;28;25074;-67
2022/02/02 09:38:51;;;;;;;25.00;5.45;;;9.20;99.90;;;;;;5069764;28;25055;-69
2022/02/02 09:43:49;;;;;;;24.30;5.60;;;9.20;99.90;;;;;;5069370;28;25056;-70
2022/02/02 09:46:18;;;;;;;34.25;5.97;;;9.30;99.90;;;;;;5069324;28;25051;-69
2022/02/02 09:48:49;;;;;;;23.63;5.22;;;9.20;99.90;;;;;;5068225;28;25099;-69
2022/02/02 09:51:24;;;;;;;25.20;5.80;;;9.30;99.90;;;;;;5069699;28;25070;-68
2022/02/02 09:54:05;;;;;;;30.38;5.65;;;9.30;99.90;;;;;;5068890;28;25131;-67
2022/02/02 09:57:24;;;;;;;28.35;6.07;;;9.40;99.90;;;;;;5069469;28;25110;-68
2022/02/02 09:59:54;;;;;;;28.50;7.07;;;9.40;99.90;;;;;;5067331;28;25118;-67
2022/02/02 10:05:26;;;;;;;33.03;5.82;;;9.50;99.90;;;;;;5069501;28;25077;-69
2022/02/02 10:15:27;;;;;;;22.67;5.63;;;9.60;99.90;;;;;;5068894;28;25076;-68
2022/02/02 10:18:13;;;;;;;22.85;4.47;;;9.60;99.90;;;;;;5067581;28;25076;-68
2022/02/02 10:20:38;;;;;;;27.67;6.10;;;9.70;99.90;;;;;;5067955;28;25092;-68
2022/02/02 10:23:05;;;;;;;24.38;5.13;;;9.70;99.90;;;;;;5066103;28;25099;-69
2022/02/02 10:25:37;;;;;;;23.63;6.18;;;9.80;99.90;;;;;;5066580;28;25069;-69
2022/02/02 10:28:20;;;;;;;32.38;6.28;;;9.70;99.90;;;;;;5067874;28;25059;-66
2022/02/02 10:30:54;;;;;;;25.25;6.15;;;9.70;99.90;;;;;;5066541;28;25070;-69
2022/02/02 10:33:28;;;;;;;35.63;6.07;;;9.70;99.90;;;;;;5080363;28;25054;-68
2022/02/02 10:36:00;;;;;;;28.40;4.85;;;9.80;99.90;;;;;;5087424;28;25071;-69
2022/02/02 10:38:31;;;;;;;29.25;5.20;;;9.80;99.90;;;;;;5088991;28;25052;-69
2022/02/02 10:43:42;;;;;;;27.85;5.22;;;9.90;99.90;;;;;;5087685;28;25068;-69
2022/02/02 10:46:28;;;;;;;24.60;4.40;;;9.90;99.90;;;;;;5088351;28;25071;-68
2022/02/02 10:49:04;;;;;;;28.10;6.03;;;9.90;99.90;;;;;;5069301;28;25093;-69
2022/02/02 10:57:34;;;;;;;20.20;5.40;;;10.00;99.90;;;;;;5088456;28;25109;-70
2022/02/02 11:07:46;;;;;;;16.50;4.10;;;10.00;99.90;;;;;;5089943;28;25123;-67
2022/02/02 11:10:12;;;;;;;32.58;5.45;;;10.00;99.90;;;;;;5088617;28;25117;-68
2022/02/02 11:12:40;;;;;;;23.77;4.60;;;10.10;99.90;;;;;;5087214;28;25089;-68
2022/02/02 11:15:45;;;;;;;31.38;5.15;;;10.10;99.90;;;;;;5087857;28;25149;-69
2022/02/02 11:18:21;;;;;;;24.13;5.60;;;10.10;99.90;;;;;;4966052;28;25139;-69
2022/02/02 11:20:47;;;;;;;19.50;4.82;;;10.10;99.90;;;;;;5057585;28;25152;-69
2022/02/02 11:23:13;;;;;;;15.48;4.32;;;10.00;99.90;;;;;;5051709;28;25130;-69
2022/02/02 11:25:50;;;;;;;15.48;4.90;;;10.10;99.90;;;;;;5070534;28;25085;-65
2022/02/02 11:28:36;;;;;;;26.90;5.00;;;10.10;99.90;;;;;;5052311;28;25051;-68
2022/02/02 11:31:18;;;;;;;18.88;4.72;;;10.00;99.90;;;;;;5070974;28;25062;-69
2022/02/02 11:33:57;;;;;;;20.33;5.03;;;10.00;99.90;;;;;;5071369;28;25049;-69
2022/02/02 11:36:31;;;;;;;20.20;5.32;;;10.00;99.90;;;;;;5052537;28;25151;-69
2022/02/02 11:38:59;;;;;;;21.38;4.82;;;10.00;99.90;;;;;;5071305;28;25072;-73
2022/02/02 11:41:47;;;;;;;24.70;5.68;;;9.90;99.90;;;;;;5071282;28;25059;-69
2022/02/02 11:44:23;;;;;;;27.70;5.05;;;9.90;99.90;;;;;;5052664;28;25090;-69
2022/02/02 11:47:19;;;;;;;26.88;5.75;;;9.90;99.90;;;;;;5053397;28;25106;-71
2022/02/02 11:49:51;;;;;;;18.63;4.35;;;9.80;99.90;;;;;;5072210;28;25078;-68
2022/02/02 11:52:45;;;;;;;24.63;5.00;;;9.90;99.90;;;;;;5052972;28;25053;-70
2022/02/02 11:55:11;;;;;;;24.58;5.05;;;9.90;99.90;;;;;;5070662;28;25134;-70
2022/02/02 11:58:00;;;;;;;20.23;5.40;;;9.90;99.90;;;;;;5069945;28;25136;-70
2022/02/02 12:00:45;;;;;;;23.35;5.32;;;10.00;99.90;;;;;;5053331;28;25069;-69
2022/02/02 12:08:26;;;;;;;20.77;5.40;;;9.90;99.90;;;;;;5071027;28;25055;-69
2022/02/02 12:47:49;;;;;;;23.67;5.35;;;10.40;99.90;;;;;;5092236;28;25098;-69
2022/02/02 12:58:33;;;;;;;22.40;6.78;;;10.30;99.90;;;;;;5089232;28;25049;-68
2022/02/02 13:01:09;;;;;;;32.47;6.57;;;10.30;99.90;;;;;;5089248;28;25066;-68
2022/02/02 13:03:40;;;;;;;40.05;7.40;;;10.30;99.90;;;;;;5069187;28;25068;-68
2022/02/02 13:06:15;;;;;;;13.77;4.57;;;10.20;99.90;;;;;;5089591;28;25081;-69
2022/02/02 13:08:42;;;;;;;28.75;7.03;;;10.20;99.90;;;;;;5069552;28;25068;-69
2022/02/02 13:11:08;;;;;;;28.52;5.40;;;10.20;99.90;;;;;;5087572;28;25053;-68
2022/02/02 13:13:34;;;;;;;25.27;5.75;;;10.30;99.90;;;;;;5088003;28;25077;-66
2022/02/02 13:16:17;;;;;;;23.85;5.55;;;10.20;99.90;;;;;;5055363;28;25113;-66
2022/02/02 13:18:46;;;;;;;19.23;3.78;;;10.20;99.90;;;;;;5072628;28;25053;-69
2022/02/02 13:21:34;;;;;;;24.83;6.03;;;10.20;99.90;;;;;;5069923;28;25072;-69
2022/02/02 13:24:28;;;;;;;19.80;5.18;;;10.30;99.90;;;;;;5067747;28;25062;-66
2022/02/02 13:27:03;;;;;;;22.77;4.45;;;10.50;99.90;;;;;;5066378;28;25080;-66
2022/02/02 13:29:43;;;;;;;22.20;5.45;;;10.60;99.90;;;;;;5049529;28;25145;-68
2022/02/02 13:54:34;;;;;;;22.00;6.00;;;10.60;99.90;;;;;;5085700;28;25104;-70
2022/02/02 13:57:15;;;;;;;20.63;4.50;;;10.80;99.90;;;;;;5087257;28;25110;-69
2022/02/02 14:31:03;;;;;;;18.50;5.55;;;11.00;99.90;;;;;;5067602;28;25126;-70
2022/02/02 14:31:37;;;;;;;22.30;5.88;;;11.00;99.90;;;;;;5068395;28;25078;-68
2022/02/02 14:34:04;;;;;;;24.35;5.65;;;11.10;99.90;;;;;;5069466;28;25106;-72
2022/02/02 14:36:35;;;;;;;21.20;5.70;;;11.00;99.90;;;;;;5051588;28;25128;-70
2022/02/02 14:46:31;;;;;;;23.17;5.45;;;10.60;99.90;;;;;;5069345;28;25123;-69
2022/02/02 14:49:05;;;;;;;18.20;6.05;;;10.70;99.90;;;;;;5068458;28;25069;-67
2022/02/02 14:54:10;;;;;;;22.02;5.40;;;10.60;99.90;;;;;;5067112;28;25124;-69
2022/02/02 15:28:54;;;;;;;19.02;4.40;;;10.40;99.90;;;;;;5069855;28;25093;-70
2022/02/02 15:31:20;;;;;;;23.33;4.43;;;10.30;99.90;;;;;;5070110;28;25104;-69
2022/02/02 15:33:49;;;;;;;19.95;4.05;;;10.20;99.90;;;;;;5084365;28;25097;-68
2022/02/02 15:38:47;;;;;;;19.48;3.55;;;10.10;99.90;;;;;;5071206;28;25097;-70
2022/02/02 15:41:20;;;;;;;18.67;3.47;;;10.10;99.90;;;;;;5070400;28;25052;-70
2022/02/02 15:44:54;;;;;;;15.10;3.67;;;10.10;99.90;;;;;;5068745;28;25293;-68
2022/02/02 15:55:04;;;;;;;17.98;4.55;;;10.00;99.90;;;;;;5069250;28;25087;-69
2022/02/02 15:58:14;;;;;;;;;;;9.90;99.90;;;;;;5069046;28;25092;-69
2022/02/02 16:03:08;;;;;;;12.05;4.25;;;9.80;99.90;;;;;;5029106;28;25442;-68
2022/02/02 16:05:42;;;;;;;14.20;4.50;;;9.80;99.90;;;;;;5070313;28;25026;-68
2022/02/02 16:08:11;;;;;;;9.73;3.75;;;9.80;99.90;;;;;;5069902;28;25088;-66
2022/02/02 16:10:46;;;;;;;12.93;3.67;;;9.70;99.90;;;;;;5074529;28;25065;-70
2022/02/02 16:13:28;;;;;;;11.63;3.90;;;9.70;99.90;;;;;;5074040;28;25079;-69
2022/02/02 16:15:57;;;;;;;15.18;4.75;;;9.70;99.90;;;;;;5073664;28;25128;-68
2022/02/02 16:18:36;;;;;;;10.43;3.72;;;9.60;99.90;;;;;;5073917;28;25059;-70
2022/02/02 16:34:58;;;;;;;3.80;3.03;;;9.60;99.90;;;;;;5101890;28;25051;-69
2022/02/02 16:37:30;;;;;;;5.28;2.88;;;9.70;99.90;;;;;;5098786;28;25100;-69
2022/02/02 16:39:59;;;;;;;7.60;2.97;;;9.70;99.90;;;;;;5098787;28;25072;-68
2022/02/02 16:45:11;;;;;;;6.47;3.20;;;9.70;99.90;;;;;;5110784;28;25066;-67
2022/02/02 16:47:44;;;;;;;9.85;3.28;;;9.70;99.90;;;;;;5105961;28;25058;-68
2022/02/02 16:50:27;;;;;;;5.18;3.00;;;9.70;99.90;;;;;;5109578;28;25079;-69
2022/02/02 16:52:56;;;;;;;10.43;4.35;;;9.60;99.90;;;;;;5090554;28;25089;-70
2022/02/02 16:55:52;;;;;;;6.22;3.17;;;9.60;99.90;;;;;;5067606;28;25070;-69
2022/02/02 17:39:00;;;;;;;11.45;6.22;;;9.60;99.90;;;;;;5076187;28;25071;-69
2022/02/02 18:00:58;;;;;;;19.75;11.70;;;9.40;99.90;;;;;;5054859;28;25059;-71
2022/02/02 18:15:21;;;;;;;35.53;18.45;;;9.40;99.90;;;;;;5034633;28;25059;-69
2022/02/02 18:18:07;;;;;;;30.15;16.80;;;9.40;99.90;;;;;;5063422;28;25069;-68
2022/02/02 18:20:00;;;;;;;41.65;20.65;;;9.50;99.90;;;;;;5062245;28;25071;-67
2022/02/02 18:22:33;;;;;;;49.67;22.77;;;9.40;99.90;;;;;;5062324;28;25156;-70
2022/02/02 18:25:11;;;;;;;46.30;23.08;;;9.40;99.90;;;;;;5059835;28;25131;-69
2022/02/02 18:27:48;;;;;;;51.17;24.85;;;9.50;99.90;;;;;;5063858;28;25083;-67
2022/02/02 18:30:34;;;;;;;45.65;23.73;;;9.40;99.90;;;;;;5062220;28;25065;-68
2022/02/02 18:33:19;;;;;;;52.75;26.48;;;9.40;99.90;;;;;;5052146;28;25083;-70
2022/02/02 18:36:38;;;;;;;49.05;23.98;;;9.40;99.90;;;;;;5065750;28;25057;-68
2022/02/02 18:49:09;;;;;;;46.08;24.60;;;9.40;99.90;;;;;;5066196;28;25058;-70
2022/02/02 18:59:46;;;;;;;37.38;21.85;;;9.30;99.90;;;;;;5067973;28;25157;-68
2022/02/02 19:02:47;;;;;;;42.08;23.48;;;9.40;99.90;;;;;;5068973;28;25070;-69
2022/02/02 19:38:11;;;;;;;36.53;20.38;;;9.30;99.90;;;;;;5071383;28;25056;-70
2022/02/02 19:56:47;;;;;;;37.60;20.45;;;9.40;99.90;;;;;;5062470;28;25066;-69
2022/02/02 20:02:44;;;;;;;37.30;18.98;;;9.40;99.90;;;;;;5025505;28;25088;-69
2022/02/02 20:10:58;;;;;;;33.90;18.08;;;9.30;99.90;;;;;;5019332;28;25067;-70
2022/02/02 20:13:24;;;;;;;36.53;18.83;;;9.40;99.90;;;;;;5051376;28;25070;-69
2022/02/02 20:15:49;;;;;;;39.17;19.23;;;9.30;99.90;;;;;;5068157;28;25074;-69
2022/02/02 20:18:15;;;;;;;36.75;19.83;;;9.30;99.90;;;;;;5043549;28;25073;-70
2022/02/02 20:20:43;;;;;;;41.63;19.58;;;9.30;99.90;;;;;;5046127;28;25067;-68
2022/02/02 20:23:09;;;;;;;34.78;18.02;;;9.30;99.90;;;;;;5048374;28;25051;-69
2022/02/02 20:25:37;;;;;;;37.30;20.05;;;9.30;99.90;;;;;;5053275;28;25098;-68
2022/02/02 20:28:06;;;;;;;34.80;19.05;;;9.40;99.90;;;;;;5053115;28;25048;-68
2022/02/02 20:30:34;;;;;;;32.30;18.27;;;9.40;99.90;;;;;;5051383;28;25052;-67
2022/02/02 20:32:59;;;;;;;38.80;19.33;;;9.30;99.90;;;;;;5057277;28;25062;-69
2022/02/02 20:35:25;;;;;;;34.75;18.50;;;9.30;99.90;;;;;;5068798;28;25050;-71
2022/02/02 20:37:51;;;;;;;40.58;19.10;;;9.20;99.90;;;;;;5067707;28;25076;-66
2022/02/02 20:40:16;;;;;;;37.42;18.58;;;9.20;99.90;;;;;;5068059;28;25111;-70
2022/02/02 21:13:39;;;;;;;25.63;12.43;;;9.00;99.90;;;;;;5064528;28;25072;-71
2022/02/02 21:14:41;;;;;;;25.88;12.30;;;9.10;99.90;;;;;;5062334;28;25072;-71
2022/02/02 21:17:17;;;;;;;26.17;12.30;;;9.10;99.90;;;;;;5066146;28;25155;-69
2022/02/02 21:19:52;;;;;;;21.08;11.93;;;9.10;99.90;;;;;;5048215;28;25060;-69
2022/02/02 21:22:19;;;;;;;18.50;12.30;;;9.10;99.90;;;;;;5028239;28;25123;-69
2022/02/02 21:24:51;;;;;;;26.95;13.18;;;9.20;99.90;;;;;;5059042;28;25117;-70
2022/02/02 21:27:25;;;;;;;22.77;13.02;;;9.20;99.90;;;;;;5067194;28;25063;-71
2022/02/02 21:29:51;;;;;;;23.60;12.43;;;9.10;99.90;;;;;;5049406;28;25128;-70
2022/02/02 21:32:18;;;;;;;22.40;13.43;;;9.10;99.90;;;;;;5069079;28;25150;-70
2022/02/02 21:34:44;;;;;;;25.55;15.13;;;9.20;99.90;;;;;;5082292;28;25109;-72
2022/02/02 21:37:10;;;;;;;23.23;13.73;;;9.10;99.90;;;;;;5063624;28;25051;-68
2022/02/02 21:39:39;;;;;;;20.92;12.93;;;9.20;99.90;;;;;;5057227;28;25068;-70
2022/02/02 21:42:05;;;;;;;27.40;14.85;;;9.20;99.90;;;;;;5043864;28;25064;-71
2022/02/02 21:44:30;;;;;;;30.27;15.60;;;9.20;99.90;;;;;;5063431;28;25065;-67
2022/02/02 21:46:57;;;;;;;21.38;14.73;;;9.20;99.90;;;;;;5055025;28;24806;-70
2022/02/02 21:49:25;;;;;;;24.35;14.77;;;9.10;99.90;;;;;;5066103;28;25055;-71
2022/02/02 21:51:57;;;;;;;23.13;14.85;;;9.10;99.90;;;;;;5065723;28;25104;-69
2022/02/02 21:54:22;;;;;;;25.20;16.38;;;9.10;99.90;;;;;;5042108;28;25081;-73
2022/02/02 21:56:48;;;;;;;29.90;14.73;;;9.10;99.90;;;;;;5043883;28;25146;-70
2022/02/02 21:59:14;;;;;;;26.35;15.25;;;9.10;99.90;;;;;;5056395;28;25082;-71
2022/02/02 22:01:39;;;;;;;24.50;14.52;;;9.10;99.90;;;;;;5067091;28;25065;-71
2022/02/02 22:04:05;;;;;;;23.63;14.13;;;9.20;99.90;;;;;;5067232;28;25066;-71
2022/02/02 22:06:30;;;;;;;28.05;14.27;;;9.20;99.90;;;;;;5059365;28;25133;-70
2022/02/02 22:08:56;;;;;;;27.10;15.18;;;9.10;99.90;;;;;;5071147;28;25097;-67
2022/02/02 22:11:22;;;;;;;29.92;16.45;;;9.20;99.90;;;;;;5074581;28;25149;-68
2022/02/02 22:13:58;;;;;;;30.85;15.63;;;9.20;99.90;;;;;;5073850;28;25061;-71
2022/02/02 22:16:24;;;;;;;26.98;15.48;;;9.20;99.90;;;;;;5063648;28;25129;-69
2022/02/02 22:18:51;;;;;;;30.83;17.00;;;9.20;99.90;;;;;;5067790;28;25140;-70
2022/02/02 22:21:17;;;;;;;29.58;15.77;;;9.20;99.90;;;;;;5047368;28;25125;-71
2022/02/02 22:24:05;;;;;;;35.10;16.65;;;9.20;99.90;;;;;;5064116;28;25074;-69
2022/02/02 22:26:42;;;;;;;29.58;17.55;;;9.20;99.90;;;;;;5058871;28;25062;-68
2022/02/02 22:29:19;;;;;;;31.98;17.92;;;9.20;99.90;;;;;;5048277;28;25104;-69
2022/02/02 22:32:13;;;;;;;33.63;19.02;;;9.20;99.90;;;;;;5051696;28;25058;-71
2022/02/02 22:34:38;;;;;;;33.72;19.20;;;9.20;99.90;;;;;;5070090;28;25075;-72
2022/02/02 22:37:04;;;;;;;34.42;18.38;;;9.30;99.90;;;;;;5050800;28;25106;-70
2022/02/02 22:39:29;;;;;;;32.13;18.15;;;9.30;99.90;;;;;;5070727;28;25077;-71
2022/02/02 22:41:58;;;;;;;41.97;20.30;;;9.30;99.90;;;;;;5063835;28;25072;-71
2022/02/02 22:44:28;;;;;;;35.13;18.25;;;9.30;99.90;;;;;;5057421;28;25050;-71
2022/02/02 22:46:54;;;;;;;31.58;17.02;;;9.20;99.90;;;;;;5060445;28;25160;-70
2022/02/02 22:49:20;;;;;;;35.67;16.75;;;9.30;99.90;;;;;;5046907;28;25081;-70
2022/02/02 22:51:45;;;;;;;33.25;16.40;;;9.30;99.90;;;;;;5064611;28;25160;-71
2022/02/02 22:54:11;;;;;;;31.58;17.98;;;9.30;99.90;;;;;;5057942;28;25063;-69
2022/02/02 22:56:37;;;;;;;38.33;16.25;;;9.20;99.90;;;;;;5061101;28;25104;-67
2022/02/02 22:59:03;;;;;;;27.20;16.35;;;9.20;99.90;;;;;;5061418;28;25081;-71
2022/02/02 23:01:31;;;;;;;29.50;15.55;;;9.20;99.90;;;;;;5059610;28;25076;-70
2022/02/02 23:03:57;;;;;;;29.48;15.98;;;9.20;99.90;;;;;;5054273;28;25136;-70
2022/02/02 23:06:23;;;;;;;28.85;17.05;;;9.20;99.90;;;;;;5055465;28;25074;-70
2022/02/02 23:08:49;;;;;;;25.70;14.57;;;9.20;99.90;;;;;;5060090;28;25067;-70
2022/02/02 23:11:17;;;;;;;22.48;14.82;;;9.20;99.90;;;;;;5063113;28;25096;-69
2022/02/02 23:13:46;;;;;;;26.17;15.50;;;9.30;99.90;;;;;;5055102;28;25132;-69
2022/02/02 23:16:20;;;;;;;25.27;14.85;;;9.20;99.90;;;;;;5056639;28;25096;-71
2022/02/02 23:18:46;;;;;;;21.65;15.18;;;9.30;99.90;;;;;;5059814;28;25115;-71
2022/02/02 23:21:13;;;;;;;26.50;16.10;;;9.30;99.90;;;;;;5068910;28;25079;-70
2022/02/02 23:23:45;;;;;;;29.00;17.02;;;9.30;99.90;;;;;;5068991;28;25052;-68
2022/02/02 23:26:12;;;;;;;23.88;16.40;;;9.30;99.90;;;;;;5034530;28;25109;-69
2022/02/02 23:28:43;;;;;;;33.03;17.38;;;9.30;99.90;;;;;;5043782;28;25088;-71
2022/02/02 23:31:11;;;;;;;31.95;18.23;;;9.30;99.90;;;;;;5053010;28;25125;-69
2022/02/02 23:33:39;;;;;;;36.20;18.60;;;9.20;99.90;;;;;;5072439;28;25078;-68
2022/02/02 23:36:05;;;;;;;32.50;19.25;;;9.30;99.90;;;;;;5061423;28;25095;-70
2022/02/02 23:38:31;;;;;;;28.98;19.13;;;9.30;99.90;;;;;;5058801;28;25172;-69
2022/02/02 23:43:24;;;;;;;29.90;18.67;;;9.30;99.90;;;;;;5048047;28;25146;-70
2022/02/02 23:45:54;;;;;;;35.95;19.33;;;9.30;99.90;;;;;;5044602;28;25084;-70
2022/02/02 23:48:26;;;;;;;36.20;21.42;;;9.30;99.90;;;;;;5059163;28;25165;-70
2022/02/02 23:50:58;;;;;;;32.35;22.27;;;9.30;99.90;;;;;;5028827;28;25089;-70